Time;durP1;ratioP1;P1;durP2;ratioP2;P2;SDS_P1;SDS_P2;PMS_P1;PMS_P2;Temp;Humidity;BMP_temperature;BMP_pressure;BME280_temperature;BME280_humidity;BME280_pressure;Samples;Min_cycle;Max_cycle;Signal;HPM_P1;HPM_P2
2021/05/09 00:01:10;;;;;;;7.65;2.75;;;;;;;13.14;74.35;99414.44;5033613;28;20057;-71
2021/05/09 00:03:36;;;;;;;9.68;2.58;;;;;;;13.16;74.40;99408.97;5018327;28;20081;-71
2021/05/09 00:06:04;;;;;;;5.68;2.65;;;;;;;13.18;74.37;99407.84;5018319;28;20057;-70
2021/05/09 00:08:30;;;;;;;7.15;3.05;;;;;;;13.21;74.56;99403.22;5018177;28;20405;-72
2021/05/09 00:10:56;;;;;;;9.85;2.80;;;;;;;13.20;74.67;99404.19;5018155;28;20423;-71
2021/05/09 00:13:22;;;;;;;6.18;2.53;;;;;;;13.10;74.43;99383.53;5017032;28;20053;-73
2021/05/09 00:15:50;;;;;;;6.00;2.65;;;;;;;13.10;74.83;99393.41;5016862;28;20053;-71
2021/05/09 00:18:16;;;;;;;9.13;2.50;;;;;;;13.12;74.94;99396.78;5018178;28;20053;-73
2021/05/09 00:20:43;;;;;;;7.90;2.83;;;;;;;13.07;74.84;99386.47;5018110;28;20046;-73
2021/05/09 00:23:09;;;;;;;8.82;2.90;;;;;;;13.14;74.97;99387.66;5017933;28;20140;-71
2021/05/09 00:25:36;;;;;;;8.90;2.80;;;;;;;13.18;74.69;99386.41;5017923;28;20053;-73
2021/05/09 00:28:02;;;;;;;6.47;2.80;;;;;;;13.21;74.95;99388.00;5016778;28;20061;-71
2021/05/09 00:30:28;;;;;;;5.47;2.30;;;;;;;13.27;74.45;99383.94;5016565;28;20104;-72
2021/05/09 00:32:54;;;;;;;4.50;2.72;;;;;;;13.24;74.68;99381.53;5016618;28;20185;-70
2021/05/09 00:35:21;;;;;;;10.27;3.15;;;;;;;13.23;74.79;99380.66;5033107;28;20363;-70
2021/05/09 00:37:48;;;;;;;4.93;2.95;;;;;;;13.21;74.74;99379.09;5017692;28;20050;-72
2021/05/09 00:40:14;;;;;;;7.00;2.70;;;;;;;13.24;74.92;99373.50;5017641;28;20505;-71
2021/05/09 00:42:41;;;;;;;7.38;2.75;;;;;;;13.25;74.81;99375.19;5017621;28;20045;-71
2021/05/09 00:45:08;;;;;;;5.25;2.97;;;;;;;13.15;75.09;99361.72;5017511;28;20711;-71
2021/05/09 00:47:34;;;;;;;9.20;3.70;;;;;;;13.19;74.88;99365.84;5016348;28;20057;-73
2021/05/09 00:50:01;;;;;;;8.60;3.05;;;;;;;13.20;75.07;99355.97;5017452;28;20050;-71
2021/05/09 00:52:31;;;;;;;9.27;3.85;;;;;;;13.18;74.94;99359.63;5017493;28;20103;-72
2021/05/09 00:55:05;;;;;;;8.02;3.38;;;;;;;13.15;75.25;99364.41;5017306;28;20088;-72
2021/05/09 00:57:34;;;;;;;4.78;3.17;;;;;;;13.10;75.37;99354.06;5016183;28;20096;-73
2021/05/09 01:00:02;;;;;;;5.55;2.75;;;;;;;13.10;75.56;99358.56;5017549;28;20476;-70
2021/05/09 01:02:29;;;;;;;5.53;3.05;;;;;;;13.07;75.40;99350.81;5017300;28;20459;-72
2021/05/09 01:04:58;;;;;;;11.40;3.38;;;;;;;13.05;75.86;99348.25;5017383;28;20045;-72
2021/05/09 01:07:25;;;;;;;10.32;3.30;;;;;;;13.02;75.70;99351.19;5017177;28;20413;-71
2021/05/09 01:10:01;;;;;;;7.28;3.53;;;;;;;12.92;75.92;99340.41;5017313;28;20085;-73
2021/05/09 01:12:27;;;;;;;5.70;2.70;;;;;;;12.99;75.99;99344.28;5017505;28;20134;-73
2021/05/09 01:14:55;;;;;;;5.43;3.00;;;;;;;13.06;75.85;99339.22;5032566;28;20108;-72
2021/05/09 01:17:21;;;;;;;6.00;3.03;;;;;;;13.01;76.01;99336.09;5017392;28;20437;-71
2021/05/09 01:19:47;;;;;;;5.90;3.05;;;;;;;13.00;76.26;99329.03;5016875;28;20103;-73
2021/05/09 01:22:14;;;;;;;7.18;2.85;;;;;;;13.00;76.00;99327.22;5016854;28;20054;-72
2021/05/09 01:24:40;;;;;;;5.22;3.08;;;;;;;12.98;76.17;99325.66;5016641;28;20124;-70
2021/05/09 01:27:06;;;;;;;5.63;2.78;;;;;;;12.99;76.15;99321.97;5016969;28;20112;-71
2021/05/09 01:29:34;;;;;;;7.68;3.10;;;;;;;12.97;76.27;99314.06;5016745;28;20057;-72
2021/05/09 01:32:01;;;;;;;9.73;2.90;;;;;;;13.00;76.36;99310.28;5015686;28;20158;-71
2021/05/09 01:34:34;;;;;;;8.75;2.80;;;;;;;12.95;76.12;99296.44;5015487;28;20489;-71
2021/05/09 01:37:02;;;;;;;4.45;2.80;;;;;;;12.95;76.39;99299.09;5017120;28;20061;-72
2021/05/09 01:39:28;;;;;;;6.90;2.80;;;;;;;12.96;76.53;99300.81;5017667;28;20462;-72
2021/05/09 01:41:56;;;;;;;5.80;2.90;;;;;;;12.90;76.43;99286.97;5032237;28;20058;-72
2021/05/09 01:44:23;;;;;;;6.60;2.70;;;;;;;12.95;76.76;99296.44;5016240;28;20050;-70
2021/05/09 01:46:50;;;;;;;4.75;2.67;;;;;;;12.98;76.24;99293.50;5016435;28;20060;-71
2021/05/09 01:49:16;;;;;;;6.18;2.63;;;;;;;12.94;76.45;99286.69;5016378;28;20053;-71
2021/05/09 01:51:42;;;;;;;4.20;2.55;;;;;;;12.95;76.56;99281.22;5031540;28;20053;-69
2021/05/09 01:54:09;;;;;;;9.10;2.75;;;;;;;12.96;76.65;99279.41;5015595;28;20053;-72
2021/05/09 01:56:35;;;;;;;7.05;2.70;;;;;;;12.85;76.36;99256.22;5031925;28;20378;-71
2021/05/09 01:59:01;;;;;;;5.53;2.30;;;;;;;13.02;76.23;99278.88;5015693;28;20057;-69
2021/05/09 02:01:27;;;;;;;7.53;2.35;;;;;;;12.98;76.25;99270.25;5016340;28;20054;-71
2021/05/09 02:03:53;;;;;;;8.45;2.58;;;;;;;13.04;75.80;99258.16;5031937;28;20053;-70
2021/05/09 02:06:19;;;;;;;5.10;2.60;;;;;;;13.11;75.64;99264.69;5016290;28;20062;-72
2021/05/09 02:08:45;;;;;;;7.28;2.40;;;;;;;13.13;75.57;99270.75;5016657;28;20061;-69
2021/05/09 02:11:12;;;;;;;3.70;2.15;;;;;;;13.17;75.48;99266.84;5017030;28;20116;-72
2021/05/09 02:13:38;;;;;;;3.85;2.38;;;;;;;13.16;75.36;99257.09;5016346;28;20375;-73
2021/05/09 02:16:04;;;;;;;8.90;2.70;;;;;;;13.17;75.20;99260.63;5016510;28;20057;-71
2021/05/09 02:18:30;;;;;;;5.78;2.05;;;;;;;13.16;75.22;99249.06;5015388;28;20050;-70
2021/05/09 02:20:57;;;;;;;4.28;2.50;;;;;;;13.23;75.07;99259.25;5016177;28;20049;-72
2021/05/09 02:23:23;;;;;;;6.18;2.40;;;;;;;13.19;74.83;99242.59;5016248;28;20105;-71
2021/05/09 02:25:49;;;;;;;7.53;2.42;;;;;;;13.17;75.05;99234.69;5015751;28;20053;-72
2021/05/09 02:28:15;;;;;;;6.60;2.53;;;;;;;13.22;74.83;99231.59;5030849;28;20133;-72
2021/05/09 02:30:42;;;;;;;4.63;2.35;;;;;;;13.29;74.42;99227.41;5014596;28;20439;-72
2021/05/09 02:33:14;;;;;;;4.68;2.20;;;;;;;13.37;74.21;99232.09;5015560;28;20049;-71
2021/05/09 02:35:43;;;;;;;4.28;2.47;;;;;;;13.35;74.10;99225.16;5015898;28;20058;-71
2021/05/09 02:38:09;;;;;;;5.38;2.20;;;;;;;13.28;73.78;99203.41;5015876;28;20076;-72
2021/05/09 02:40:35;;;;;;;5.18;1.90;;;;;;;13.44;73.40;99209.13;5015733;28;20092;-72
2021/05/09 02:43:01;;;;;;;2.63;1.90;;;;;;;13.42;73.51;99211.06;5015611;28;20046;-71
2021/05/09 02:45:28;;;;;;;4.35;2.05;;;;;;;13.43;73.44;99215.47;5015593;28;20081;-72
2021/05/09 02:47:57;;;;;;;7.03;2.20;;;;;;;13.42;73.05;99205.72;5015641;28;20137;-70
2021/05/09 02:50:23;;;;;;;2.53;2.00;;;;;;;13.38;73.24;99203.44;5016203;28;20132;-72
2021/05/09 02:52:49;;;;;;;5.07;1.92;;;;;;;13.34;73.03;99199.34;5017525;28;20061;-71
2021/05/09 02:55:16;;;;;;;2.88;1.70;;;;;;;13.26;72.67;99182.13;5016939;28;20050;-71
2021/05/09 02:57:42;;;;;;;4.90;2.00;;;;;;;13.31;72.39;99198.63;5031075;28;20057;-72
2021/05/09 03:00:09;;;;;;;4.72;1.92;;;;;;;13.36;72.31;99203.59;5014371;28;20355;-71
2021/05/09 03:02:38;;;;;;;4.45;1.80;;;;;;;13.36;72.18;99206.28;5015741;28;20054;-72
2021/05/09 03:05:05;;;;;;;2.88;1.92;;;;;;;13.33;71.86;99208.38;5015821;28;20053;-72
2021/05/09 03:07:31;;;;;;;3.42;1.85;;;;;;;13.31;71.81;99203.16;5015380;28;20077;-72
2021/05/09 03:09:58;;;;;;;3.58;1.67;;;;;;;13.36;70.83;99200.06;5014115;28;20053;-71
2021/05/09 03:12:24;;;;;;;3.63;1.83;;;;;;;13.36;70.82;99194.69;5016560;28;20517;-71
2021/05/09 03:14:50;;;;;;;3.70;1.60;;;;;;;13.38;70.13;99193.59;5034418;28;20042;-71
2021/05/09 03:17:17;;;;;;;3.13;1.88;;;;;;;13.37;69.99;99202.63;5019395;28;20049;-72
2021/05/09 03:19:43;;;;;;;3.60;1.75;;;;;;;13.38;69.35;99188.22;5018020;28;20057;-72
2021/05/09 03:22:09;;;;;;;4.53;1.70;;;;;;;13.38;69.59;99201.63;5018083;28;20050;-72
2021/05/09 03:24:35;;;;;;;3.30;1.63;;;;;;;13.34;69.22;99202.88;5018218;28;20092;-72
2021/05/09 03:27:01;;;;;;;3.15;1.67;;;;;;;13.41;68.45;99192.47;5019012;28;20057;-72
2021/05/09 03:29:27;;;;;;;2.72;1.58;;;;;;;13.41;68.08;99187.09;5018991;28;20093;-73
2021/05/09 03:31:53;;;;;;;3.20;1.17;;;;;;;13.29;68.47;99183.69;5019281;28;20050;-72
2021/05/09 03:34:20;;;;;;;3.83;1.70;;;;;;;13.30;67.76;99175.50;5034344;28;20088;-70
2021/05/09 03:36:46;;;;;;;5.05;1.58;;;;;;;13.29;67.58;99175.66;5034264;28;20462;-71
2021/05/09 03:39:12;;;;;;;2.53;1.30;;;;;;;13.35;67.19;99184.97;5017695;28;20050;-73
2021/05/09 03:41:39;;;;;;;4.20;1.77;;;;;;;13.27;67.25;99181.13;5018874;28;20124;-73
2021/05/09 03:44:06;;;;;;;2.33;1.50;;;;;;;13.25;67.21;99177.72;5034069;28;20050;-71
2021/05/09 03:46:32;;;;;;;3.08;1.33;;;;;;;13.20;67.06;99176.44;5017807;28;20054;-71
2021/05/09 03:48:58;;;;;;;2.45;1.17;;;;;;;13.19;67.05;99172.94;5019309;28;20056;-71
2021/05/09 03:51:25;;;;;;;4.03;1.50;;;;;;;13.14;66.69;99169.81;5018767;28;20453;-73
2021/05/09 03:53:51;;;;;;;2.17;1.38;;;;;;;13.12;66.65;99167.25;5017522;28;20424;-71
2021/05/09 03:56:17;;;;;;;2.63;1.60;;;;;;;13.14;66.18;99167.97;5018538;28;20050;-71
2021/05/09 03:58:43;;;;;;;6.78;1.85;;;;;;;13.06;66.04;99170.47;5017237;28;20427;-71
2021/05/09 04:01:09;;;;;;;2.67;1.35;;;;;;;13.07;65.74;99168.66;5018605;28;20092;-71
2021/05/09 04:03:35;;;;;;;4.60;1.58;;;;;;;13.15;65.12;99161.63;5018574;28;20058;-69
2021/05/09 04:06:02;;;;;;;2.88;1.73;;;;;;;13.05;65.33;99155.38;5018464;28;20351;-70
2021/05/09 04:08:28;;;;;;;4.55;1.30;;;;;;;13.08;64.78;99155.09;5017046;28;20050;-73
2021/05/09 04:10:56;;;;;;;2.75;1.40;;;;;;;13.13;64.30;99155.53;5018231;28;20054;-72
2021/05/09 04:13:22;;;;;;;2.85;1.30;;;;;;;13.25;63.54;99150.94;5018069;28;20050;-72
2021/05/09 04:15:49;;;;;;;1.70;1.25;;;;;;;13.25;63.39;99150.94;5017231;28;20058;-73
2021/05/09 04:18:16;;;;;;;4.03;1.55;;;;;;;13.21;63.46;99140.63;5033521;28;20053;-72
2021/05/09 04:20:43;;;;;;;3.72;1.55;;;;;;;13.25;63.10;99137.53;5018182;28;20095;-73
2021/05/09 04:23:14;;;;;;;2.92;1.10;;;;;;;13.39;62.50;99149.72;5016511;28;20053;-73
2021/05/09 04:25:46;;;;;;;3.72;0.98;;;;;;;13.31;62.94;99141.53;5017964;28;20085;-72
2021/05/09 04:28:12;;;;;;;1.75;1.20;;;;;;;13.35;62.07;99140.25;5017114;28;20141;-73
2021/05/09 04:30:38;;;;;;;1.55;1.00;;;;;;;13.37;61.96;99149.00;5033118;28;20050;-71
2021/05/09 04:33:06;;;;;;;2.90;1.08;;;;;;;13.37;62.03;99143.66;5017969;28;20053;-72
2021/05/09 04:35:33;;;;;;;1.45;1.10;;;;;;;13.28;62.49;99142.63;5017624;28;20045;-73
2021/05/09 04:38:00;;;;;;;1.98;1.30;;;;;;;13.24;62.71;99140.38;5017774;28;20081;-72
2021/05/09 04:40:27;;;;;;;1.88;1.15;;;;;;;13.27;62.40;99145.44;5017643;28;20132;-71
2021/05/09 04:42:54;;;;;;;7.53;1.23;;;;;;;13.20;62.78;99142.47;5017560;28;20077;-71
2021/05/09 04:45:21;;;;;;;1.45;1.33;;;;;;;13.18;62.61;99133.69;5017725;28;20112;-73
2021/05/09 04:47:47;;;;;;;3.58;1.30;;;;;;;13.28;63.04;99148.00;5017617;28;20046;-72
2021/05/09 04:50:13;;;;;;;5.20;1.65;;;;;;;13.30;62.96;99139.81;5016425;28;20100;-73
2021/05/09 04:52:40;;;;;;;8.00;1.50;;;;;;;13.28;63.10;99139.94;5017330;28;20439;-73
2021/05/09 04:55:07;;;;;;;1.58;1.20;;;;;;;13.26;63.73;99146.44;5016183;28;20399;-72
2021/05/09 04:57:34;;;;;;;2.80;1.42;;;;;;;13.22;63.64;99145.00;5017380;28;20052;-71
2021/05/09 05:00:05;;;;;;;4.15;1.42;;;;;;;13.20;63.96;99138.94;5017354;28;20144;-73
2021/05/09 05:02:31;;;;;;;2.33;1.05;;;;;;;13.26;64.36;99141.94;5017433;28;20050;-72
2021/05/09 05:04:59;;;;;;;1.35;1.15;;;;;;;13.26;64.88;99141.06;5017157;28;20042;-71
2021/05/09 05:07:25;;;;;;;3.50;1.73;;;;;;;13.39;64.53;99125.59;5015868;28;20050;-72
2021/05/09 05:09:51;;;;;;;2.25;1.08;;;;;;;13.54;64.53;99133.28;5016935;28;20062;-72
2021/05/09 05:12:17;;;;;;;4.38;1.50;;;;;;;13.69;64.48;99131.03;5016175;28;20054;-72
2021/05/09 05:14:44;;;;;;;2.15;1.20;;;;;;;13.81;64.34;99129.06;5017013;28;20085;-71
2021/05/09 05:17:10;;;;;;;1.88;1.27;;;;;;;13.93;64.01;99127.09;5016996;28;20057;-73
2021/05/09 05:19:37;;;;;;;4.10;1.55;;;;;;;13.85;64.29;99109.03;5017011;28;20057;-73
2021/05/09 05:22:04;;;;;;;6.78;1.40;;;;;;;14.04;64.53;99120.72;5032285;28;20101;-71
2021/05/09 05:24:31;;;;;;;2.60;1.20;;;;;;;14.30;63.86;99102.22;5016895;28;20050;-72
2021/05/09 05:26:57;;;;;;;6.03;1.85;;;;;;;14.44;63.89;99103.59;5016956;28;20100;-71
2021/05/09 05:29:23;;;;;;;4.00;1.33;;;;;;;14.48;64.04;99096.94;5015852;28;20054;-72
2021/05/09 05:31:50;;;;;;;2.72;1.58;;;;;;;14.68;63.96;99094.22;5015678;28;20077;-71
2021/05/09 05:34:18;;;;;;;5.65;1.60;;;;;;;14.74;64.34;99088.28;5015909;28;20431;-72
2021/05/09 05:36:45;;;;;;;2.85;1.58;;;;;;;14.81;64.60;99088.53;5016260;28;20062;-72
2021/05/09 05:39:12;;;;;;;1.70;1.48;;;;;;;14.92;64.53;99069.53;5016506;28;20086;-72
2021/05/09 05:41:39;;;;;;;2.80;1.73;;;;;;;15.10;64.55;99082.19;5016497;28;20050;-71
2021/05/09 05:44:07;;;;;;;3.25;1.40;;;;;;;15.18;64.77;99084.09;5015433;28;20057;-72
2021/05/09 05:46:37;;;;;;;3.55;1.58;;;;;;;15.14;65.05;99077.34;5016486;28;20058;-72
2021/05/09 05:49:03;;;;;;;3.10;1.30;;;;;;;15.15;65.60;99082.56;5016758;28;20053;-69
2021/05/09 05:51:30;;;;;;;2.28;1.42;;;;;;;15.39;65.22;99072.22;5017263;28;20050;-72
2021/05/09 05:53:57;;;;;;;3.60;1.75;;;;;;;15.41;65.31;99064.88;5017785;28;20057;-70
2021/05/09 05:56:26;;;;;;;4.53;1.73;;;;;;;15.57;65.44;99074.94;5017841;28;20050;-71
2021/05/09 05:58:53;;;;;;;4.50;1.52;;;;;;;15.69;65.28;99062.13;5016671;28;20057;-70
2021/05/09 06:01:19;;;;;;;3.17;1.60;;;;;;;15.86;64.80;99066.63;5016231;28;20054;-72
2021/05/09 06:03:45;;;;;;;3.35;1.58;;;;;;;15.99;64.82;99068.13;5016092;28;20155;-69
2021/05/09 06:06:12;;;;;;;3.70;1.67;;;;;;;15.97;64.20;99030.59;5015988;28;20046;-71
2021/05/09 06:08:39;;;;;;;3.22;1.40;;;;;;;16.27;64.45;99058.06;5015662;28;20061;-69
2021/05/09 06:11:06;;;;;;;4.20;1.50;;;;;;;16.19;64.65;99041.00;5016008;28;20060;-72
2021/05/09 06:13:32;;;;;;;7.20;2.88;;;;;;;16.39;64.44;99055.94;5014862;28;20045;-70
2021/05/09 06:15:58;;;;;;;3.53;1.67;;;;;;;16.29;64.86;99057.91;5015961;28;20111;-70
2021/05/09 06:18:24;;;;;;;4.00;1.20;;;;;;;16.50;63.97;99062.09;5031075;28;20489;-71
2021/05/09 06:20:51;;;;;;;1.58;1.30;;;;;;;16.54;64.12;99056.22;5015806;28;20057;-71
2021/05/09 06:23:20;;;;;;;5.22;1.73;;;;;;;16.67;64.20;99052.25;5016141;28;20100;-69
2021/05/09 06:25:47;;;;;;;3.63;1.20;;;;;;;16.76;63.89;99047.72;5015864;28;20046;-71
2021/05/09 06:28:13;;;;;;;3.17;1.30;;;;;;;16.72;64.08;99049.06;5014872;28;20411;-71
2021/05/09 06:30:39;;;;;;;2.67;1.48;;;;;;;16.76;64.15;99045.03;5014730;28;20060;-72
2021/05/09 06:33:05;;;;;;;4.68;1.95;;;;;;;16.80;63.96;99051.78;5015604;28;20054;-72
2021/05/09 06:35:36;;;;;;;4.28;1.70;;;;;;;16.87;63.84;99044.75;5015817;28;20058;-72
2021/05/09 06:38:03;;;;;;;3.88;1.35;;;;;;;17.01;63.12;99037.03;5015802;28;20053;-71
2021/05/09 06:40:29;;;;;;;5.15;1.48;;;;;;;17.19;62.88;99051.31;5015593;28;20094;-71
2021/05/09 06:43:00;;;;;;;2.78;1.40;;;;;;;17.26;62.62;99039.84;5015565;28;20435;-71
2021/05/09 06:45:28;;;;;;;2.47;1.42;;;;;;;17.34;62.65;99039.88;5015436;28;20053;-73
2021/05/09 06:47:56;;;;;;;4.10;1.70;;;;;;;17.50;61.79;99037.19;5015327;28;20279;-72
2021/05/09 06:50:22;;;;;;;4.25;1.55;;;;;;;17.54;62.26;99039.56;5015589;28;20054;-71
2021/05/09 06:52:49;;;;;;;2.10;1.48;;;;;;;17.68;61.52;99038.03;5015469;28;20050;-73
2021/05/09 06:55:16;;;;;;;3.13;1.95;;;;;;;17.86;61.48;99035.22;5014219;28;20062;-73
2021/05/09 06:57:46;;;;;;;3.28;1.60;;;;;;;18.05;60.27;99034.03;5015436;28;20052;-73
2021/05/09 07:00:14;;;;;;;4.72;1.77;;;;;;;18.16;60.50;99038.25;5015233;28;20058;-71
2021/05/09 07:02:44;;;;;;;7.53;1.70;;;;;;;18.38;59.05;99034.00;5015170;28;20435;-71
2021/05/09 07:05:11;;;;;;;1.83;1.23;;;;;;;18.56;59.06;99019.41;5015160;28;20541;-71
2021/05/09 07:07:50;;;;;;;8.05;1.73;;;;;;;18.71;58.87;99004.16;5015224;28;20054;-71
2021/05/09 07:10:18;;;;;;;3.65;1.58;;;;;;;18.77;58.86;99002.63;5013636;28;20053;-70
2021/05/09 07:12:45;;;;;;;2.65;1.45;;;;;;;18.80;59.01;99004.13;5014383;28;20058;-72
2021/05/09 07:15:14;;;;;;;4.10;1.70;;;;;;;18.74;59.10;98992.13;5015156;28;20096;-74
2021/05/09 07:17:42;;;;;;;3.67;1.75;;;;;;;18.82;58.36;99000.22;5015145;28;20061;-71
2021/05/09 07:20:09;;;;;;;5.80;1.80;;;;;;;18.81;59.21;98987.75;5015179;28;20332;-73
2021/05/09 07:22:41;;;;;;;3.33;1.58;;;;;;;18.93;58.20;98987.31;5015046;28;20069;-73
2021/05/09 07:25:08;;;;;;;5.90;1.63;;;;;;;18.91;58.67;98986.66;5015090;28;20355;-73
2021/05/09 07:27:34;;;;;;;4.20;1.60;;;;;;;18.97;58.26;98986.78;5013932;28;20399;-72
2021/05/09 07:30:00;;;;;;;2.72;1.55;;;;;;;19.13;57.79;98975.06;5014089;28;20439;-72
2021/05/09 07:32:26;;;;;;;2.67;1.67;;;;;;;19.27;57.52;98965.34;5014965;28;20058;-71
2021/05/09 07:34:53;;;;;;;5.50;1.90;;;;;;;19.43;57.65;98965.41;5014946;28;20053;-72
2021/05/09 07:37:19;;;;;;;3.92;1.52;;;;;;;19.52;57.39;98972.44;5013891;28;20049;-70
2021/05/09 07:39:46;;;;;;;2.58;1.60;;;;;;;19.60;57.45;98958.84;5014102;28;20053;-72
2021/05/09 07:42:12;;;;;;;6.75;1.60;;;;;;;19.78;56.47;98960.38;5014110;28;20049;-72
2021/05/09 07:44:38;;;;;;;3.97;1.40;;;;;;;19.94;56.65;98949.38;5030405;28;20329;-72
2021/05/09 07:47:04;;;;;;;2.25;1.45;;;;;;;20.01;56.88;98962.22;5030271;28;20064;-71
2021/05/09 07:49:31;;;;;;;1.83;1.45;;;;;;;20.06;56.63;98938.97;5015044;28;20046;-71
2021/05/09 07:51:57;;;;;;;2.55;1.50;;;;;;;20.01;57.57;98940.56;5014662;28;20442;-73
2021/05/09 07:54:23;;;;;;;4.75;1.83;;;;;;;20.06;56.67;98933.53;5014050;28;20053;-71
2021/05/09 07:56:49;;;;;;;6.45;1.60;;;;;;;20.16;56.17;98935.97;5014785;28;20124;-72
2021/05/09 07:59:15;;;;;;;3.75;1.50;;;;;;;20.33;55.47;98935.81;5017508;28;20112;-72
2021/05/09 08:01:41;;;;;;;2.67;1.45;;;;;;;20.40;56.05;98922.31;5019074;28;20387;-72
2021/05/09 08:04:07;;;;;;;6.53;1.63;;;;;;;20.48;55.73;98922.22;5020280;28;20128;-73
2021/05/09 08:06:35;;;;;;;4.85;1.83;;;;;;;20.48;56.00;98920.34;5019019;28;20085;-71
2021/05/09 08:09:01;;;;;;;4.10;1.55;;;;;;;20.41;55.92;98922.16;5018399;28;20054;-71
2021/05/09 08:11:27;;;;;;;6.63;1.30;;;;;;;20.46;55.29;98922.44;5018211;28;20541;-73
2021/05/09 08:13:53;;;;;;;4.30;1.88;;;;;;;20.57;54.48;98933.81;5018196;28;20062;-71
2021/05/09 08:16:19;;;;;;;4.40;1.73;;;;;;;20.57;54.40;98937.38;5016980;28;20056;-70
2021/05/09 08:18:45;;;;;;;6.00;1.90;;;;;;;20.60;54.28;98936.97;5018070;28;20052;-72
2021/05/09 08:21:12;;;;;;;3.67;1.65;;;;;;;20.65;53.60;98938.28;5033205;28;20103;-71
2021/05/09 08:23:43;;;;;;;2.67;1.30;;;;;;;20.74;53.31;98946.13;5018183;28;20125;-72
2021/05/09 08:26:10;;;;;;;4.10;1.50;;;;;;;20.90;53.60;98955.09;5018144;28;20340;-73
2021/05/09 08:28:37;;;;;;;1.92;1.70;;;;;;;20.83;54.15;98944.16;5016922;28;20053;-73
2021/05/09 08:31:04;;;;;;;3.65;1.60;;;;;;;20.97;53.98;98942.44;5033015;28;20054;-70
2021/05/09 08:33:30;;;;;;;2.90;1.33;;;;;;;21.03;53.54;98949.00;5017752;28;20053;-72
2021/05/09 08:35:56;;;;;;;4.25;1.60;;;;;;;21.06;52.84;98937.75;5017506;28;20382;-72
2021/05/09 08:38:24;;;;;;;5.05;1.92;;;;;;;21.08;52.64;98932.13;5017872;28;20049;-73
2021/05/09 08:40:50;;;;;;;2.75;1.40;;;;;;;21.06;53.06;98931.47;5017572;28;20443;-72
2021/05/09 08:43:21;;;;;;;5.28;1.40;;;;;;;21.11;52.64;98927.16;5017645;28;20049;-73
2021/05/09 08:45:48;;;;;;;3.25;1.70;;;;;;;21.18;53.26;98940.78;5016759;28;20053;-71
2021/05/09 08:48:18;;;;;;;5.50;1.95;;;;;;;21.17;53.72;98920.09;5017377;28;20443;-70
2021/05/09 08:50:46;;;;;;;3.40;1.45;;;;;;;21.43;52.18;98933.09;5016460;28;20436;-72
2021/05/09 08:53:17;;;;;;;4.07;1.40;;;;;;;21.59;51.40;98925.72;5017672;28;20057;-72
2021/05/09 08:55:45;;;;;;;2.08;1.30;;;;;;;21.64;50.49;98916.97;5017463;28;20072;-71
2021/05/09 08:58:13;;;;;;;4.30;1.30;;;;;;;21.68;50.42;98920.97;5017320;28;20138;-72
2021/05/09 09:00:40;;;;;;;3.80;1.63;;;;;;;21.67;50.12;98917.41;5017205;28;20431;-73
2021/05/09 09:03:06;;;;;;;3.03;1.52;;;;;;;21.62;50.10;98911.72;5017191;28;20081;-71
2021/05/09 09:05:39;;;;;;;4.70;1.50;;;;;;;21.74;49.85;98912.09;5016340;28;20112;-73
2021/05/09 09:08:07;;;;;;;3.83;1.10;;;;;;;21.69;50.34;98914.53;5017048;28;20061;-70
2021/05/09 09:11:00;;;;;;;2.13;1.20;;;;;;;21.77;47.83;98905.38;5032092;28;20058;-72
2021/05/09 09:13:31;;;;;;;3.70;1.50;;;;;;;21.74;48.38;98900.38;5017497;28;20057;-72
2021/05/09 09:16:05;;;;;;;4.00;1.83;;;;;;;21.78;47.15;98901.66;5016941;28;20053;-69
2021/05/09 09:18:37;;;;;;;2.67;1.42;;;;;;;21.83;47.88;98899.16;5015915;28;20050;-70
2021/05/09 09:21:22;;;;;;;5.25;1.65;;;;;;;21.83;47.86;98885.59;5016963;28;20092;-70
2021/05/09 09:24:05;;;;;;;2.15;1.27;;;;;;;21.92;48.17;98881.69;5016805;28;20077;-71
2021/05/09 09:26:41;;;;;;;2.70;1.27;;;;;;;22.07;47.16;98876.13;5016788;28;20342;-72
2021/05/09 09:29:27;;;;;;;2.92;1.33;;;;;;;22.25;47.11;98858.44;5016710;28;20057;-72
2021/05/09 09:32:00;;;;;;;3.53;1.40;;;;;;;22.61;46.15;98878.28;5016766;28;20060;-70
2021/05/09 09:34:50;;;;;;;3.42;1.50;;;;;;;22.88;45.89;98867.47;5015788;28;20093;-73
2021/05/09 09:37:16;;;;;;;4.68;1.77;;;;;;;22.99;44.68;98863.31;5016683;28;20061;-71
2021/05/09 09:39:54;;;;;;;2.42;1.52;;;;;;;23.10;44.77;98865.38;5015592;28;20140;-69
2021/05/09 09:42:40;;;;;;;4.05;1.33;;;;;;;23.08;45.42;98861.22;5016534;28;20053;-72
2021/05/09 09:45:17;;;;;;;3.60;1.25;;;;;;;23.14;45.05;98855.78;5015392;28;20050;-71
2021/05/09 09:47:54;;;;;;;7.30;1.63;;;;;;;23.14;45.13;98847.63;5016557;28;20057;-72
2021/05/09 09:50:37;;;;;;;3.25;1.35;;;;;;;23.15;45.08;98834.84;5016543;28;20076;-70
2021/05/09 09:53:32;;;;;;;1.77;1.27;;;;;;;23.22;43.84;98841.13;5016244;28;20532;-72
2021/05/09 09:56:03;;;;;;;2.75;1.20;;;;;;;23.35;43.20;98834.88;5016262;28;20462;-71
2021/05/09 09:58:59;;;;;;;2.95;1.40;;;;;;;23.42;43.45;98835.72;5016274;28;20050;-72
2021/05/09 10:01:28;;;;;;;3.33;1.40;;;;;;;23.57;43.14;98837.34;5016200;28;20080;-72
2021/05/09 10:04:02;;;;;;;3.80;1.25;;;;;;;23.70;42.73;98831.88;5016511;28;20050;-71
2021/05/09 10:06:29;;;;;;;1.33;1.05;;;;;;;24.06;43.78;98845.22;5016202;28;20049;-70
2021/05/09 10:08:58;;;;;;;5.07;1.20;;;;;;;24.26;41.68;98851.47;5016451;28;20053;-71
2021/05/09 10:11:28;;;;;;;5.15;1.55;;;;;;;24.37;41.72;98832.75;5015887;28;20064;-70
2021/05/09 10:13:54;;;;;;;8.02;1.50;;;;;;;24.57;40.92;98845.47;5015990;28;20061;-70
2021/05/09 10:16:26;;;;;;;3.70;1.45;;;;;;;24.72;41.19;98831.53;5015688;28;20339;-72
2021/05/09 10:18:55;;;;;;;3.53;1.52;;;;;;;24.90;41.76;98828.09;5014930;28;20103;-73
2021/05/09 10:21:35;;;;;;;4.90;2.10;;;;;;;24.79;40.29;98826.88;5015336;28;20486;-72
2021/05/09 10:24:24;;;;;;;;;;;;;;;24.89;40.62;98826.41;5016204;28;20474;-71
2021/05/09 10:26:59;;;;;;;5.10;1.42;;;;;;;24.86;40.71;98827.69;5015888;28;19928;-70
2021/05/09 10:32:07;;;;;;;3.00;1.55;;;;;;;24.71;40.42;98835.31;5015871;28;20064;-72
2021/05/09 10:34:51;;;;;;;2.28;1.40;;;;;;;24.68;41.57;98852.97;5015721;28;20042;-73
2021/05/09 10:37:42;;;;;;;4.78;2.10;;;;;;;24.54;41.31;98855.75;5015735;28;20053;-72
2021/05/09 10:40:20;;;;;;;6.03;1.55;;;;;;;24.47;41.62;98862.28;5015592;28;20053;-70
2021/05/09 10:42:48;;;;;;;7.60;1.38;;;;;;;24.46;41.92;98860.63;5014428;28;20100;-72
2021/05/09 10:45:52;;;;;;;2.33;1.17;;;;;;;24.54;41.44;98857.63;5015700;28;20332;-71
2021/05/09 10:48:22;;;;;;;3.17;1.20;;;;;;;24.71;41.91;98851.69;5032961;28;20467;-70
2021/05/09 10:50:55;;;;;;;3.40;1.33;;;;;;;24.80;41.75;98850.41;5018086;28;20058;-70
2021/05/09 10:53:33;;;;;;;5.40;1.50;;;;;;;25.01;40.64;98851.91;5015306;28;20538;-70
2021/05/09 10:56:04;;;;;;;5.00;1.58;;;;;;;25.25;40.71;98852.19;5015248;28;20081;-71
2021/05/09 10:58:39;;;;;;;4.38;1.45;;;;;;;25.24;40.27;98842.31;5015457;28;20107;-71
2021/05/09 11:01:09;;;;;;;6.13;1.40;;;;;;;25.27;40.75;98836.41;5015291;28;20100;-70
2021/05/09 11:03:39;;;;;;;4.47;1.53;;;;;;;25.38;38.45;98856.69;5015221;28;20451;-72
2021/05/09 11:06:24;;;;;;;4.18;1.45;;;;;;;25.37;39.64;98846.81;5015488;28;20104;-72
2021/05/09 11:08:53;;;;;;;3.45;1.55;;;;;;;25.58;39.55;98840.16;5015323;28;20069;-71
2021/05/09 11:11:25;;;;;;;3.30;1.35;;;;;;;25.82;38.86;98850.44;5014812;28;20402;-70
2021/05/09 11:14:18;;;;;;;4.07;1.40;;;;;;;25.74;39.30;98821.50;5014171;28;20181;-71
2021/05/09 11:16:58;;;;;;;3.15;1.58;;;;;;;26.12;40.11;98839.59;5015200;28;20058;-72
2021/05/09 11:19:44;;;;;;;2.90;1.50;;;;;;;25.97;38.38;98833.66;5014890;28;20058;-71
2021/05/09 11:22:11;;;;;;;2.50;1.30;;;;;;;26.15;38.70;98843.75;5014076;28;20054;-70
2021/05/09 11:24:40;;;;;;;5.07;1.42;;;;;;;26.25;38.78;98827.66;5014940;28;20046;-71
2021/05/09 11:27:16;;;;;;;4.80;1.50;;;;;;;26.34;39.83;98839.13;5014916;28;20050;-72
2021/05/09 11:29:48;;;;;;;3.38;1.60;;;;;;;26.51;38.84;98833.84;5015106;28;20050;-71
2021/05/09 11:32:16;;;;;;;2.28;1.45;;;;;;;26.65;38.30;98859.16;5030289;28;20475;-73
2021/05/09 11:34:49;;;;;;;3.70;1.60;;;;;;;26.71;39.00;98852.72;5018336;28;20451;-74
2021/05/09 11:37:16;;;;;;;4.40;1.73;;;;;;;26.92;37.63;98858.78;5018782;28;20149;-71
2021/05/09 11:39:42;;;;;;;3.22;1.52;;;;;;;26.90;36.75;98852.69;5018841;28;20129;-70
2021/05/09 11:42:14;;;;;;;2.88;1.20;;;;;;;27.01;36.27;98852.97;5033990;28;20383;-70
2021/05/09 11:44:56;;;;;;;2.72;1.55;;;;;;;26.90;36.95;98860.91;5018873;28;20100;-73